Time;durP1;ratioP1;P1;durP2;ratioP2;P2;SDS_P1;SDS_P2;PMS_P1;PMS_P2;Temp;Humidity;BMP_temperature;BMP_pressure;BME280_temperature;BME280_humidity;BME280_pressure;Samples;Min_cycle;Max_cycle;Signal;HPM_P1;HPM_P2
2023/06/23 00:01:01;;;;;;;;;;;;;;;;;;5066532;28;43646;-67
2023/06/23 00:03:27;;;;;;;;;;;;;;;;;;5066939;28;46417;-66
2023/06/23 00:05:54;;;;;;;;;;;;;;;;;;5065178;28;47534;-67
2023/06/23 00:08:20;;;;;;;;;;;;;;;;;;5065675;28;43649;-67
2023/06/23 00:10:48;;;;;;;;;;;;;;;;;;5065244;28;45814;-67
2023/06/23 00:13:14;;;;;;;;;;;;;;;;;;5061809;28;47167;-67
2023/06/23 00:15:40;;;;;;;;;;;;;;;;;;5063210;28;44799;-67
2023/06/23 00:18:06;;;;;;;;;;;;;;;;;;5061802;28;46186;-67
2023/06/23 00:20:33;;;;;;;;;;;;;;;;;;5046830;28;44160;-67
2023/06/23 00:22:59;;;;;;;;;;;;;;;;;;5065923;28;46486;-67
2023/06/23 00:25:25;;;;;;;;;;;;;;;;;;5065939;28;45917;-67
2023/06/23 00:27:52;;;;;;;;;;;;;;;;;;5066063;28;44090;-67
2023/06/23 00:30:18;;;;;;;;;;;;;;;;;;5065005;28;45171;-67
2023/06/23 00:32:44;;;;;;;;;;;;;;;;;;5065856;28;45786;-67
2023/06/23 00:35:13;;;;;;;;;;;;;;;;;;5064169;28;43942;-67
2023/06/23 00:37:39;;;;;;;;;;;;;;;;;;5064062;28;46622;-67
2023/06/23 00:40:10;;;;;;;;;;;;;;;;;;5060683;28;45766;-67
2023/06/23 00:42:36;;;;;;;;;;;;;;;;;;5063527;28;45806;-67
2023/06/23 00:45:03;;;;;;;;;;;;;;;;;;5044129;28;46021;-67
2023/06/23 00:47:29;;;;;;;;;;;;;;;;;;5046660;28;43547;-67
2023/06/23 00:49:55;;;;;;;;;;;;;;;;;;5044319;28;44137;-67
2023/06/23 00:52:23;;;;;;;;;;;;;;;;;;5043542;28;44490;-67
2023/06/23 00:54:50;;;;;;;;;;;;;;;;;;5045837;28;41241;-67
2023/06/23 00:57:17;;;;;;;;;;;;;;;;;;5044754;28;46685;-66
2023/06/23 00:59:44;;;;;;;;;;;;;;;;;;5060671;28;34528;-67
2023/06/23 01:02:10;;;;;;;;;;;;;;;;;;5045107;28;45777;-67
2023/06/23 01:04:36;;;;;;;;;;;;;;;;;;5044075;28;47145;-67
2023/06/23 01:07:03;;;;;;;;;;;;;;;;;;5045239;28;44731;-67
2023/06/23 01:09:30;;;;;;;;;;;;;;;;;;5045559;28;44376;-67
2023/06/23 01:11:56;;;;;;;;;;;;;;;;;;5045585;28;46229;-67
2023/06/23 01:14:24;;;;;;;;;;;;;;;;;;5044877;28;45381;-67
2023/06/23 01:16:50;;;;;;;;;;;;;;;;;;5044226;28;45178;-67
2023/06/23 01:19:16;;;;;;;;;;;;;;;;;;5042981;28;46241;-67
2023/06/23 01:21:42;;;;;;;;;;;;;;;;;;5046281;28;45437;-67
2023/06/23 01:24:09;;;;;;;;;;;;;;;;;;5046311;28;45770;-67
2023/06/23 01:26:35;;;;;;;;;;;;;;;;;;5042481;28;44822;-67
2023/06/23 01:29:01;;;;;;;;;;;;;;;;;;5044214;28;46592;-67
2023/06/23 01:31:31;;;;;;;;;;;;;;;;;;5044686;28;47115;-67
2023/06/23 01:33:57;;;;;;;;;;;;;;;;;;5044836;28;45116;-67
2023/06/23 01:36:23;;;;;;;;;;;;;;;;;;5045149;28;45692;-67
2023/06/23 01:38:50;;;;;;;;;;;;;;;;;;5044686;28;47126;-66
2023/06/23 01:41:16;;;;;;;;;;;;;;;;;;5046517;28;44827;-66
2023/06/23 01:43:42;;;;;;;;;;;;;;;;;;5045028;28;44717;-67
2023/06/23 01:46:09;;;;;;;;;;;;;;;;;;5051500;28;43858;-66
2023/06/23 01:48:35;;;;;;;;;;;;;;;;;;5064696;28;44523;-66
2023/06/23 01:51:02;;;;;;;;;;;;;;;;;;5064326;28;47270;-66
2023/06/23 01:53:28;;;;;;;;;;;;;;;;;;5065766;28;45996;-66
2023/06/23 01:55:55;;;;;;;;;;;;;;;;;;5068246;28;45397;-66
2023/06/23 01:58:21;;;;;;;;;;;;;;;;;;5067558;28;45664;-67
2023/06/23 02:00:47;;;;;;;;;;;;;;;;;;5067060;28;43575;-67
2023/06/23 02:03:13;;;;;;;;;;;;;;;;;;5068403;28;44758;-67
2023/06/23 02:05:40;;;;;;;;;;;;;;;;;;5068072;28;43646;-67
2023/06/23 02:08:06;;;;;;;;;;;;;;;;;;5067911;28;45360;-67
2023/06/23 02:10:32;;;;;;;;;;;;;;;;;;5066736;28;46931;-67
2023/06/23 02:12:59;;;;;;;;;;;;;;;;;;5067615;28;44816;-67
2023/06/23 02:15:25;;;;;;;;;;;;;;;;;;5067781;28;46423;-67
2023/06/23 02:17:51;;;;;;;;;;;;;;;;;;5066731;28;46063;-67
2023/06/23 02:20:18;;;;;;;;;;;;;;;;;;5066944;28;42347;-67
2023/06/23 02:22:45;;;;;;;;;;;;;;;;;;5066786;28;46709;-67
2023/06/23 02:25:11;;;;;;;;;;;;;;;;;;5067710;28;45811;-67
2023/06/23 02:27:38;;;;;;;;;;;;;;;;;;5049430;28;46474;-67
2023/06/23 02:30:04;;;;;;;;;;;;;;;;;;5067882;28;44837;-67
2023/06/23 02:32:30;;;;;;;;;;;;;;;;;;5066919;28;43622;-67
2023/06/23 02:34:57;;;;;;;;;;;;;;;;;;5068010;28;45656;-66
2023/06/23 02:37:24;;;;;;;;;;;;;;;;;;5067581;28;47160;-67
2023/06/23 02:39:50;;;;;;;;;;;;;;;;;;5067768;28;43963;-67
2023/06/23 02:42:16;;;;;;;;;;;;;;;;;;5066643;28;46724;-67
2023/06/23 02:44:42;;;;;;;;;;;;;;;;;;5066399;28;46177;-67
2023/06/23 02:47:09;;;;;;;;;;;;;;;;;;5067659;28;42491;-67
2023/06/23 02:49:35;;;;;;;;;;;;;;;;;;5046826;28;45873;-67
2023/06/23 02:52:01;;;;;;;;;;;;;;;;;;5048152;28;43737;-67
2023/06/23 02:54:31;;;;;;;;;;;;;;;;;;5047581;28;45328;-67
2023/06/23 02:56:57;;;;;;;;;;;;;;;;;;5052453;28;46917;-66
2023/06/23 02:59:23;;;;;;;;;;;;;;;;;;5067467;28;43798;-67
2023/06/23 03:01:52;;;;;;;;;;;;;;;;;;5055913;28;45506;-67
2023/06/23 03:04:18;;;;;;;;;;;;;;;;;;5049085;28;47125;-67
2023/06/23 03:06:45;;;;;;;;;;;;;;;;;;5048064;28;45085;-67
2023/06/23 03:09:11;;;;;;;;;;;;;;;;;;5056016;28;46834;-67
2023/06/23 03:11:37;;;;;;;;;;;;;;;;;;5056971;28;43996;-67
2023/06/23 03:14:03;;;;;;;;;;;;;;;;;;5047110;28;46651;-67
2023/06/23 03:16:30;;;;;;;;;;;;;;;;;;5046462;28;45015;-67
2023/06/23 03:18:56;;;;;;;;;;;;;;;;;;5046777;28;45529;-67
2023/06/23 03:21:23;;;;;;;;;;;;;;;;;;5046498;28;46921;-67
2023/06/23 03:23:50;;;;;;;;;;;;;;;;;;5044167;28;47252;-66
2023/06/23 03:26:16;;;;;;;;;;;;;;;;;;5034384;28;44132;-66
2023/06/23 03:28:43;;;;;;;;;;;;;;;;;;5066484;28;45400;-67
2023/06/23 03:31:11;;;;;;;;;;;;;;;;;;5049992;28;46024;-67
2023/06/23 03:33:37;;;;;;;;;;;;;;;;;;5045779;28;44261;-67
2023/06/23 03:36:03;;;;;;;;;;;;;;;;;;5046360;28;47293;-67
2023/06/23 03:38:30;;;;;;;;;;;;;;;;;;5046755;28;43828;-67
2023/06/23 03:40:56;;;;;;;;;;;;;;;;;;5057796;28;45906;-67
2023/06/23 03:43:22;;;;;;;;;;;;;;;;;;5065419;28;46813;-67
2023/06/23 03:45:49;;;;;;;;;;;;;;;;;;5049617;28;44998;-67
2023/06/23 03:48:15;;;;;;;;;;;;;;;;;;5066047;28;45495;-67
2023/06/23 03:50:41;;;;;;;;;;;;;;;;;;5065935;28;47399;-67
2023/06/23 03:53:07;;;;;;;;;;;;;;;;;;5066065;28;46578;-67
2023/06/23 03:55:34;;;;;;;;;;;;;;;;;;5066397;28;46266;-67
2023/06/23 03:58:00;;;;;;;;;;;;;;;;;;5066581;28;44868;-66
2023/06/23 04:00:26;;;;;;;;;;;;;;;;;;5060227;28;44591;-67
2023/06/23 04:02:53;;;;;;;;;;;;;;;;;;5061405;28;47346;-66
2023/06/23 04:05:19;;;;;;;;;;;;;;;;;;5064749;28;44570;-67
2023/06/23 04:07:45;;;;;;;;;;;;;;;;;;5065323;28;46535;-66
2023/06/23 04:10:12;;;;;;;;;;;;;;;;;;5064083;28;43920;-66
2023/06/23 04:12:38;;;;;;;;;;;;;;;;;;5046497;28;45114;-67
2023/06/23 04:15:05;;;;;;;;;;;;;;;;;;5058689;28;45164;-67
2023/06/23 04:17:31;;;;;;;;;;;;;;;;;;5064355;28;41181;-67
2023/06/23 04:19:57;;;;;;;;;;;;;;;;;;5064615;28;45497;-67
2023/06/23 04:22:23;;;;;;;;;;;;;;;;;;5063750;28;47166;-67
2023/06/23 04:24:50;;;;;;;;;;;;;;;;;;5064141;28;44201;-67
2023/06/23 04:27:16;;;;;;;;;;;;;;;;;;5065692;28;45603;-66
2023/06/23 04:29:42;;;;;;;;;;;;;;;;;;5064476;28;47369;-67
2023/06/23 04:32:09;;;;;;;;;;;;;;;;;;5063088;28;42086;-67
2023/06/23 04:34:35;;;;;;;;;;;;;;;;;;5060935;28;47000;-67
2023/06/23 04:37:01;;;;;;;;;;;;;;;;;;5063952;28;44104;-67
2023/06/23 04:39:28;;;;;;;;;;;;;;;;;;5064599;28;42147;-67
2023/06/23 04:41:56;;;;;;;;;;;;;;;;;;5065636;28;46026;-67
2023/06/23 04:44:22;;;;;;;;;;;;;;;;;;5064221;28;43676;-67
2023/06/23 04:46:48;;;;;;;;;;;;;;;;;;5062648;28;45789;-67
2023/06/23 04:49:15;;;;;;;;;;;;;;;;;;5065539;28;47155;-67
2023/06/23 04:51:41;;;;;;;;;;;;;;;;;;5065061;28;42168;-67
2023/06/23 04:54:08;;;;;;;;;;;;;;;;;;5063400;28;45287;-67
2023/06/23 04:56:34;;;;;;;;;;;;;;;;;;5063759;28;45874;-66
2023/06/23 04:59:00;;;;;;;;;;;;;;;;;;5060651;28;45462;-67
2023/06/23 05:01:27;;;;;;;;;;;;;;;;;;5059836;28;47144;-67
2023/06/23 05:03:53;;;;;;;;;;;;;;;;;;5065260;28;42489;-67
2023/06/23 05:06:19;;;;;;;;;;;;;;;;;;5064890;28;45207;-67
2023/06/23 05:08:46;;;;;;;;;;;;;;;;;;5065093;28;46722;-67
2023/06/23 05:11:12;;;;;;;;;;;;;;;;;;5061675;28;44451;-67
2023/06/23 05:13:38;;;;;;;;;;;;;;;;;;5056953;28;47062;-67
2023/06/23 05:16:04;;;;;;;;;;;;;;;;;;5045675;28;47013;-66
2023/06/23 05:18:31;;;;;;;;;;;;;;;;;;5063333;28;46472;-67
2023/06/23 05:20:57;;;;;;;;;;;;;;;;;;5065080;28;46108;-67
2023/06/23 05:23:23;;;;;;;;;;;;;;;;;;5065091;28;43754;-66
2023/06/23 05:25:50;;;;;;;;;;;;;;;;;;5062815;28;47013;-66
2023/06/23 05:28:16;;;;;;;;;;;;;;;;;;5064097;28;48347;-67
2023/06/23 05:30:42;;;;;;;;;;;;;;;;;;5064603;28;45044;-67
2023/06/23 05:33:09;;;;;;;;;;;;;;;;;;5068260;28;45285;-67
2023/06/23 05:35:35;;;;;;;;;;;;;;;;;;5068672;28;45565;-67
2023/06/23 05:38:01;;;;;;;;;;;;;;;;;;5067442;28;45167;-67
2023/06/23 05:40:28;;;;;;;;;;;;;;;;;;5069946;28;45694;-67
2023/06/23 05:42:54;;;;;;;;;;;;;;;;;;5070113;28;44066;-66
2023/06/23 05:45:21;;;;;;;;;;;;;;;;;;5066173;28;46078;-67
2023/06/23 05:47:47;;;;;;;;;;;;;;;;;;5067880;28;45986;-67
2023/06/23 05:50:13;;;;;;;;;;;;;;;;;;5050140;28;43069;-67
2023/06/23 05:52:40;;;;;;;;;;;;;;;;;;5068245;28;45629;-67
2023/06/23 05:55:06;;;;;;;;;;;;;;;;;;5059044;28;46131;-67
2023/06/23 05:57:32;;;;;;;;;;;;;;;;;;5066106;28;46024;-67
2023/06/23 05:59:58;;;;;;;;;;;;;;;;;;5068158;28;46630;-67
2023/06/23 06:02:25;;;;;;;;;;;;;;;;;;5064852;28;42932;-67
2023/06/23 06:04:51;;;;;;;;;;;;;;;;;;5065702;28;45593;-67
2023/06/23 06:07:17;;;;;;;;;;;;;;;;;;5061046;28;45666;-67
2023/06/23 06:09:44;;;;;;;;;;;;;;;;;;5066959;28;45248;-67
2023/06/23 06:12:10;;;;;;;;;;;;;;;;;;5067741;28;44018;-67
2023/06/23 06:14:36;;;;;;;;;;;;;;;;;;5067374;28;46606;-67
2023/06/23 06:17:02;;;;;;;;;;;;;;;;;;5051859;28;44851;-67
2023/06/23 06:19:29;;;;;;;;;;;;;;;;;;5060012;28;45966;-67
2023/06/23 06:21:55;;;;;;;;;;;;;;;;;;5064552;28;44413;-67
2023/06/23 06:24:21;;;;;;;;;;;;;;;;;;5067600;28;45416;-67
2023/06/23 06:26:49;;;;;;;;;;;;;;;;;;5066821;28;44919;-67
2023/06/23 06:29:15;;;;;;;;;;;;;;;;;;5077914;28;44822;-67
2023/06/23 06:31:42;;;;;;;;;;;;;;;;;;5066388;28;46705;-67
2023/06/23 06:34:08;;;;;;;;;;;;;;;;;;5064519;28;44774;-67
2023/06/23 06:36:34;;;;;;;;;;;;;;;;;;5052130;28;43603;-66
2023/06/23 06:39:01;;;;;;;;;;;;;;;;;;5047529;28;46487;-66
2023/06/23 06:41:27;;;;;;;;;;;;;;;;;;5064243;28;45621;-66
2023/06/23 06:43:56;;;;;;;;;;;;;;;;;;5062156;28;42451;-67
2023/06/23 06:46:22;;;;;;;;;;;;;;;;;;5042152;28;47187;-66
2023/06/23 06:48:50;;;;;;;;;;;;;;;;;;5041712;28;44925;-66
2023/06/23 06:51:17;;;;;;;;;;;;;;;;;;5045086;28;45279;-66
2023/06/23 06:53:44;;;;;;;;;;;;;;;;;;5046759;28;45882;-66
2023/06/23 06:56:10;;;;;;;;;;;;;;;;;;5063846;28;43905;-66
2023/06/23 06:58:37;;;;;;;;;;;;;;;;;;5046169;28;45259;-66
2023/06/23 07:01:03;;;;;;;;;;;;;;;;;;5047419;28;45834;-67
2023/06/23 07:03:29;;;;;;;;;;;;;;;;;;5045026;28;42082;-67
2023/06/23 07:05:56;;;;;;;;;;;;;;;;;;5045873;28;48402;-67
2023/06/23 07:08:22;;;;;;;;;;;;;;;;;;5044984;28;44106;-66
2023/06/23 07:10:48;;;;;;;;;;;;;;;;;;5046315;28;45760;-66
2023/06/23 07:13:14;;;;;;;;;;;;;;;;;;5042836;28;45840;-66
2023/06/23 07:15:41;;;;;;;;;;;;;;;;;;5046119;28;44758;-66
2023/06/23 07:18:07;;;;;;;;;;;;;;;;;;5044584;28;46737;-66
2023/06/23 07:20:34;;;;;;;;;;;;;;;;;;5045901;28;45946;-66
2023/06/23 07:23:00;;;;;;;;;;;;;;;;;;5045736;28;43943;-67
2023/06/23 07:25:26;;;;;;;;;;;;;;;;;;5045716;28;46773;-67
2023/06/23 07:27:53;;;;;;;;;;;;;;;;;;5061004;28;43524;-67
2023/06/23 07:30:19;;;;;;;;;;;;;;;;;;5044291;28;46527;-67
2023/06/23 07:32:45;;;;;;;;;;;;;;;;;;5046535;28;46634;-67
2023/06/23 07:35:12;;;;;;;;;;;;;;;;;;5044612;28;43118;-67
2023/06/23 07:37:38;;;;;;;;;;;;;;;;;;5044618;28;45551;-66
2023/06/23 07:40:05;;;;;;;;;;;;;;;;;;5046944;28;47279;-66
2023/06/23 07:42:31;;;;;;;;;;;;;;;;;;5045289;28;43338;-66
2023/06/23 07:44:57;;;;;;;;;;;;;;;;;;5046375;28;46351;-66
2023/06/23 07:47:24;;;;;;;;;;;;;;;;;;5053605;28;44379;-67
2023/06/23 07:49:50;;;;;;;;;;;;;;;;;;5045908;28;44381;-66
2023/06/23 07:52:17;;;;;;;;;;;;;;;;;;5044859;28;47377;-66
2023/06/23 07:54:43;;;;;;;;;;;;;;;;;;5047756;28;42635;-66
2023/06/23 07:57:11;;;;;;;;;;;;;;;;;;5058934;28;45049;-66
2023/06/23 07:59:38;;;;;;;;;;;;;;;;;;5044883;28;45814;-66
2023/06/23 08:02:04;;;;;;;;;;;;;;;;;;5045655;28;43209;-66
2023/06/23 08:04:30;;;;;;;;;;;;;;;;;;5050265;28;45304;-66
2023/06/23 08:06:57;;;;;;;;;;;;;;;;;;5045303;28;44608;-67
2023/06/23 08:09:23;;;;;;;;;;;;;;;;;;5046244;28;43761;-68
2023/06/23 08:11:49;;;;;;;;;;;;;;;;;;5044271;28;46044;-66
2023/06/23 08:14:16;;;;;;;;;;;;;;;;;;5044963;28;42390;-67
2023/06/23 08:16:42;;;;;;;;;;;;;;;;;;5044327;28;42468;-67
2023/06/23 08:19:08;;;;;;;;;;;;;;;;;;5044063;28;44354;-67
2023/06/23 08:21:35;;;;;;;;;;;;;;;;;;5044221;28;43858;-67
2023/06/23 08:24:02;;;;;;;;;;;;;;;;;;5045213;28;45639;-67
2023/06/23 08:26:28;;;;;;;;;;;;;;;;;;5044980;28;46172;-67
2023/06/23 08:28:54;;;;;;;;;;;;;;;;;;5042561;28;43533;-67
2023/06/23 08:31:21;;;;;;;;;;;;;;;;;;5041535;28;45402;-67
2023/06/23 08:33:48;;;;;;;;;;;;;;;;;;5044630;28;44084;-67
2023/06/23 08:36:14;;;;;;;;;;;;;;;;;;5046021;28;45285;-67
2023/06/23 08:38:40;;;;;;;;;;;;;;;;;;5027847;28;45860;-67
2023/06/23 08:41:07;;;;;;;;;;;;;;;;;;5045947;28;44821;-67
2023/06/23 08:43:33;;;;;;;;;;;;;;;;;;5045707;28;46908;-67
2023/06/23 08:45:59;;;;;;;;;;;;;;;;;;5049056;28;46811;-67
2023/06/23 08:48:26;;;;;;;;;;;;;;;;;;5065418;28;45604;-67
2023/06/23 08:50:52;;;;;;;;;;;;;;;;;;5065560;28;45755;-67
2023/06/23 08:53:18;;;;;;;;;;;;;;;;;;5066046;28;45732;-67
2023/06/23 08:55:44;;;;;;;;;;;;;;;;;;5065802;28;46996;-67
2023/06/23 08:58:11;;;;;;;;;;;;;;;;;;5065673;28;46095;-67
2023/06/23 09:00:37;;;;;;;;;;;;;;;;;;5062788;28;45206;-66
2023/06/23 09:03:04;;;;;;;;;;;;;;;;;;5066180;28;46604;-67
2023/06/23 09:05:30;;;;;;;;;;;;;;;;;;5068717;28;46208;-67
2023/06/23 09:07:56;;;;;;;;;;;;;;;;;;5068541;28;43651;-67
2023/06/23 09:10:24;;;;;;;;;;;;;;;;;;5065889;28;44134;-67
2023/06/23 09:12:50;;;;;;;;;;;;;;;;;;5069243;28;43445;-67
2023/06/23 09:15:17;;;;;;;;;;;;;;;;;;5068214;28;43714;-67
2023/06/23 09:17:43;;;;;;;;;;;;;;;;;;5066914;28;47254;-67
2023/06/23 09:20:09;;;;;;;;;;;;;;;;;;5068990;28;44833;-67
2023/06/23 09:22:36;;;;;;;;;;;;;;;;;;5068308;28;46827;-67
2023/06/23 09:25:02;;;;;;;;;;;;;;;;;;5068932;28;46931;-67
2023/06/23 09:27:28;;;;;;;;;;;;;;;;;;5068948;28;46426;-67
2023/06/23 09:29:55;;;;;;;;;;;;;;;;;;5068655;28;45636;-65
2023/06/23 09:32:21;;;;;;;;;;;;;;;;;;5066383;28;44596;-65
2023/06/23 09:34:47;;;;;;;;;;;;;;;;;;5068160;28;44106;-65
2023/06/23 09:37:13;;;;;;;;;;;;;;;;;;5068742;28;47170;-65
2023/06/23 09:39:40;;;;;;;;;;;;;;;;;;5071022;28;44307;-65
2023/06/23 09:42:08;;;;;;;;;;;;;;;;;;5069436;28;46944;-66
2023/06/23 09:44:34;;;;;;;;;;;;;;;;;;5068548;28;47121;-66
2023/06/23 09:47:01;;;;;;;;;;;;;;;;;;5069846;28;43939;-66
2023/06/23 09:49:27;;;;;;;;;;;;;;;;;;5068793;28;46441;-66
2023/06/23 09:51:54;;;;;;;;;;;;;;;;;;5066689;28;44858;-66
2023/06/23 09:54:20;;;;;;;;;;;;;;;;;;5069125;28;45209;-66
2023/06/23 09:56:46;;;;;;;;;;;;;;;;;;5068950;28;46027;-66
2023/06/23 09:59:12;;;;;;;;;;;;;;;;;;5067863;28;44793;-66
2023/06/23 10:01:39;;;;;;;;;;;;;;;;;;5067983;28;46328;-66
2023/06/23 10:04:05;;;;;;;;;;;;;;;;;;5068869;28;46022;-66
2023/06/23 10:06:32;;;;;;;;;;;;;;;;;;5069667;28;44307;-66
2023/06/23 10:08:58;;;;;;;;;;;;;;;;;;5067572;28;45861;-66
2023/06/23 10:11:25;;;;;;;;;;;;;;;;;;5067464;28;46098;-65
2023/06/23 10:13:51;;;;;;;;;;;;;;;;;;5066852;28;43748;-66
2023/06/23 10:16:17;;;;;;;;;;;;;;;;;;5061683;28;45713;-66
2023/06/23 10:18:44;;;;;;;;;;;;;;;;;;5066071;28;46848;-66
2023/06/23 10:21:10;;;;;;;;;;;;;;;;;;5065327;28;45480;-66
2023/06/23 10:23:36;;;;;;;;;;;;;;;;;;5067187;28;47376;-65
2023/06/23 10:26:03;;;;;;;;;;;;;;;;;;5066800;28;43916;-66
2023/06/23 10:28:29;;;;;;;;;;;;;;;;;;5066947;28;45675;-66
2023/06/23 10:30:55;;;;;;;;;;;;;;;;;;5067362;28;45517;-66
2023/06/23 10:33:22;;;;;;;;;;;;;;;;;;5066839;28;43970;-66
2023/06/23 10:35:48;;;;;;;;;;;;;;;;;;5059181;28;43770;-65
2023/06/23 10:38:14;;;;;;;;;;;;;;;;;;5064465;28;46084;-66
2023/06/23 10:40:41;;;;;;;;;;;;;;;;;;5048738;28;43562;-66
2023/06/23 10:43:07;;;;;;;;;;;;;;;;;;5064896;28;45819;-66
2023/06/23 10:45:34;;;;;;;;;;;;;;;;;;5065917;28;42656;-66
2023/06/23 10:48:00;;;;;;;;;;;;;;;;;;5066603;28;45371;-65
2023/06/23 10:50:29;;;;;;;;;;;;;;;;;;5065990;28;45282;-66
2023/06/23 10:52:56;;;;;;;;;;;;;;;;;;5065637;28;44126;-66
2023/06/23 10:55:22;;;;;;;;;;;;;;;;;;5065468;28;45574;-66
2023/06/23 10:57:48;;;;;;;;;;;;;;;;;;5063808;28;45525;-66
2023/06/23 11:00:16;;;;;;;;;;;;;;;;;;5063642;28;43591;-66
2023/06/23 11:02:43;;;;;;;;;;;;;;;;;;5064376;28;44751;-66
2023/06/23 11:05:09;;;;;;;;;;;;;;;;;;5067333;28;43823;-66
2023/06/23 11:07:35;;;;;;;;;;;;;;;;;;5068211;28;46663;-66
2023/06/23 11:10:02;;;;;;;;;;;;;;;;;;5066350;28;46061;-65
2023/06/23 11:12:29;;;;;;;;;;;;;;;;;;5063413;28;43723;-66
2023/06/23 11:14:55;;;;;;;;;;;;;;;;;;5046371;28;46411;-66
2023/06/23 11:17:22;;;;;;;;;;;;;;;;;;5046896;28;47034;-65
2023/06/23 11:19:48;;;;;;;;;;;;;;;;;;5047027;28;45067;-66
2023/06/23 11:22:14;;;;;;;;;;;;;;;;;;5046905;28;46480;-65
2023/06/23 11:24:40;;;;;;;;;;;;;;;;;;5060683;28;32926;-68
2023/06/23 11:27:07;;;;;;;;;;;;;;;;;;5061085;28;45761;-68
2023/06/23 11:29:33;;;;;;;;;;;;;;;;;;5056508;28;46882;-68
2023/06/23 11:32:00;;;;;;;;;;;;;;;;;;5057744;28;44778;-67
2023/06/23 11:34:26;;;;;;;;;;;;;;;;;;5062045;28;46508;-68
2023/06/23 11:36:55;;;;;;;;;;;;;;;;;;5061638;28;44951;-67
2023/06/23 11:39:22;;;;;;;;;;;;;;;;;;5059795;28;43443;-68
2023/06/23 11:41:48;;;;;;;;;;;;;;;;;;5067728;28;44817;-67
2023/06/23 11:44:17;;;;;;;;;;;;;;;;;;5062911;28;46421;-67
2023/06/23 11:46:43;;;;;;;;;;;;;;;;;;5062901;28;44179;-67
2023/06/23 11:49:10;;;;;;;;;;;;;;;;;;5065408;28;46162;-67
2023/06/23 11:51:36;;;;;;;;;;;;;;;;;;5064336;28;45131;-68
2023/06/23 11:54:02;;;;;;;;;;;;;;;;;;5065701;28;47179;-67
2023/06/23 11:56:29;;;;;;;;;;;;;;;;;;5066950;28;46954;-67
2023/06/23 11:58:58;;;;;;;;;;;;;;;;;;5065513;28;45326;-67
2023/06/23 12:01:24;;;;;;;;;;;;;;;;;;5065378;28;46535;-67
2023/06/23 12:03:51;;;;;;;;;;;;;;;;;;5066550;28;46020;-67
2023/06/23 12:06:18;;;;;;;;;;;;;;;;;;5068209;28;45095;-67
2023/06/23 12:08:44;;;;;;;;;;;;;;;;;;5067558;28;44770;-67
2023/06/23 12:11:11;;;;;;;;;;;;;;;;;;5064975;28;44745;-68
2023/06/23 12:13:37;;;;;;;;;;;;;;;;;;5063976;28;45439;-66
2023/06/23 12:16:04;;;;;;;;;;;;;;;;;;5065245;28;45558;-65
2023/06/23 12:18:32;;;;;;;;;;;;;;;;;;5065815;28;43624;-65
2023/06/23 12:20:59;;;;;;;;;;;;;;;;;;5061052;28;45364;-65
2023/06/23 12:23:25;;;;;;;;;;;;;;;;;;5066152;28;44820;-65
2023/06/23 12:25:52;;;;;;;;;;;;;;;;;;5064710;28;43775;-65
2023/06/23 12:28:21;;;;;;;;;;;;;;;;;;5063827;28;46164;-66
2023/06/23 12:30:48;;;;;;;;;;;;;;;;;;5063703;28;46103;-65
2023/06/23 12:33:14;;;;;;;;;;;;;;;;;;5059966;28;45414;-65
2023/06/23 12:35:40;;;;;;;;;;;;;;;;;;5061546;28;45131;-67
2023/06/23 12:38:07;;;;;;;;;;;;;;;;;;5061632;28;44047;-67
2023/06/23 12:40:33;;;;;;;;;;;;;;;;;;5064368;28;45333;-66
2023/06/23 12:42:59;;;;;;;;;;;;;;;;;;5063464;28;46218;-66
2023/06/23 12:45:26;;;;;;;;;;;;;;;;;;5057118;28;44590;-66
2023/06/23 12:47:52;;;;;;;;;;;;;;;;;;5040787;28;46896;-66
2023/06/23 12:50:20;;;;;;;;;;;;;;;;;;5041644;28;47053;-66
2023/06/23 12:53:02;;;;;;;;;;;;;;;;;;5046254;28;45676;-66
2023/06/23 12:55:28;;;;;;;;;;;;;;;;;;5041599;28;46148;-66
2023/06/23 12:57:54;;;;;;;;;;;;;;;;;;5037342;28;43873;-67
2023/06/23 13:00:24;;;;;;;;;;;;;;;;;;5039362;28;45448;-67
2023/06/23 13:02:52;;;;;;;;;;;;;;;;;;5040197;28;45894;-67
2023/06/23 13:05:18;;;;;;;;;;;;;;;;;;5039544;28;44828;-66
2023/06/23 13:07:45;;;;;;;;;;;;;;;;;;5041435;28;44234;-67
2023/06/23 13:10:11;;;;;;;;;;;;;;;;;;5037854;28;45660;-67
2023/06/23 13:12:37;;;;;;;;;;;;;;;;;;5040826;28;44185;-66
2023/06/23 13:15:04;;;;;;;;;;;;;;;;;;5039213;28;46763;-66
2023/06/23 13:17:30;;;;;;;;;;;;;;;;;;5039086;28;45110;-66
2023/06/23 13:19:56;;;;;;;;;;;;;;;;;;5038091;28;45611;-66
2023/06/23 13:22:23;;;;;;;;;;;;;;;;;;5037914;28;45546;-66
2023/06/23 13:24:49;;;;;;;;;;;;;;;;;;5037947;28;44053;-66
2023/06/23 13:27:15;;;;;;;;;;;;;;;;;;5037843;28;48236;-66
2023/06/23 13:29:42;;;;;;;;;;;;;;;;;;5035976;28;44767;-66
2023/06/23 13:32:08;;;;;;;;;;;;;;;;;;5037645;28;45148;-66
2023/06/23 13:34:35;;;;;;;;;;;;;;;;;;5040972;28;47250;-66
2023/06/23 13:37:02;;;;;;;;;;;;;;;;;;5043235;28;45177;-66
2023/06/23 13:39:28;;;;;;;;;;;;;;;;;;5044999;28;45321;-66
2023/06/23 13:41:55;;;;;;;;;;;;;;;;;;5045359;28;45798;-66
2023/06/23 13:44:21;;;;;;;;;;;;;;;;;;5044304;28;45072;-67
2023/06/23 13:46:48;;;;;;;;;;;;;;;;;;5042293;28;46938;-67
2023/06/23 13:49:14;;;;;;;;;;;;;;;;;;5044491;28;45834;-67
2023/06/23 13:51:40;;;;;;;;;;;;;;;;;;5045215;28;44675;-67
2023/06/23 13:54:07;;;;;;;;;;;;;;;;;;5043162;28;45607;-67
2023/06/23 13:56:33;;;;;;;;;;;;;;;;;;5042868;28;43637;-67
2023/06/23 13:58:59;;;;;;;;;;;;;;;;;;5047038;28;45219;-67
2023/06/23 14:01:25;;;;;;;;;;;;;;;;;;5046330;28;46528;-67
2023/06/23 14:03:52;;;;;;;;;;;;;;;;;;5045865;28;44874;-67
2023/06/23 14:06:18;;;;;;;;;;;;;;;;;;5043031;28;43647;-67
2023/06/23 14:08:44;;;;;;;;;;;;;;;;;;5046083;28;49581;-67
2023/06/23 14:11:10;;;;;;;;;;;;;;;;;;5047209;28;42571;-67
2023/06/23 14:13:37;;;;;;;;;;;;;;;;;;5045080;28;45454;-67
2023/06/23 14:16:03;;;;;;;;;;;;;;;;;;5046144;28;44462;-67
2023/06/23 14:18:30;;;;;;;;;;;;;;;;;;5044170;28;45718;-67
2023/06/23 14:20:56;;;;;;;;;;;;;;;;;;5042534;28;47092;-66
2023/06/23 14:23:23;;;;;;;;;;;;;;;;;;5046495;28;42602;-66
2023/06/23 14:25:49;;;;;;;;;;;;;;;;;;5043749;28;45727;-66
2023/06/23 14:28:15;;;;;;;;;;;;;;;;;;5043363;28;45850;-66
2023/06/23 14:30:42;;;;;;;;;;;;;;;;;;5042053;28;44937;-66
2023/06/23 14:33:08;;;;;;;;;;;;;;;;;;5044293;28;46402;-66
2023/06/23 14:35:35;;;;;;;;;;;;;;;;;;5044551;28;47251;-66
2023/06/23 14:38:05;;;;;;;;;;;;;;;;;;5045271;28;44105;-66
2023/06/23 14:40:31;;;;;;;;;;;;;;;;;;5044311;28;46084;-66
2023/06/23 14:42:57;;;;;;;;;;;;;;;;;;5044115;28;45196;-67
2023/06/23 14:45:24;;;;;;;;;;;;;;;;;;5044901;28;45787;-67
2023/06/23 14:47:50;;;;;;;;;;;;;;;;;;5061962;28;43631;-67
2023/06/23 14:50:16;;;;;;;;;;;;;;;;;;5064820;28;43587;-67
2023/06/23 14:52:43;;;;;;;;;;;;;;;;;;5061283;28;46506;-67
2023/06/23 14:55:09;;;;;;;;;;;;;;;;;;5064735;28;47388;-66
2023/06/23 14:57:35;;;;;;;;;;;;;;;;;;5044426;28;44724;-66
2023/06/23 15:00:03;;;;;;;;;;;;;;;;;;5063283;28;47097;-67
2023/06/23 15:02:29;;;;;;;;;;;;;;;;;;5064740;28;43817;-67
2023/06/23 15:04:55;;;;;;;;;;;;;;;;;;5063806;28;45267;-66
2023/06/23 15:07:22;;;;;;;;;;;;;;;;;;5067037;28;45808;-67
2023/06/23 15:09:48;;;;;;;;;;;;;;;;;;5063092;28;41069;-67
2023/06/23 15:12:14;;;;;;;;;;;;;;;;;;5060852;28;45197;-67
2023/06/23 15:14:41;;;;;;;;;;;;;;;;;;5060769;28;44564;-67
2023/06/23 15:17:07;;;;;;;;;;;;;;;;;;5065909;28;44835;-67
2023/06/23 15:19:33;;;;;;;;;;;;;;;;;;5064378;28;46509;-67
2023/06/23 15:21:59;;;;;;;;;;;;;;;;;;5070100;28;44329;-67
2023/06/23 15:24:26;;;;;;;;;;;;;;;;;;5062798;28;45327;-67
2023/06/23 15:26:52;;;;;;;;;;;;;;;;;;5062167;28;47597;-67
2023/06/23 15:29:19;;;;;;;;;;;;;;;;;;5063064;28;45651;-67
2023/06/23 15:31:45;;;;;;;;;;;;;;;;;;5064460;28;45235;-68
2023/06/23 15:34:11;;;;;;;;;;;;;;;;;;5067379;28;46251;-67
2023/06/23 15:36:38;;;;;;;;;;;;;;;;;;5065465;28;44956;-67
2023/06/23 15:39:05;;;;;;;;;;;;;;;;;;5049223;28;45656;-68
2023/06/23 15:41:31;;;;;;;;;;;;;;;;;;5058077;28;47366;-67
2023/06/23 15:43:58;;;;;;;;;;;;;;;;;;5066349;28;46426;-68
2023/06/23 15:46:24;;;;;;;;;;;;;;;;;;5054208;28;47340;-67
2023/06/23 15:48:50;;;;;;;;;;;;;;;;;;5044345;28;43764;-67
2023/06/23 15:51:16;;;;;;;;;;;;;;;;;;5047157;28;46520;-68
2023/06/23 15:53:43;;;;;;;;;;;;;;;;;;5046616;28;45853;-68
2023/06/23 15:56:09;;;;;;;;;;;;;;;;;;5044494;28;43623;-67
2023/06/23 15:58:35;;;;;;;;;;;;;;;;;;5046870;28;46725;-67
2023/06/23 16:01:02;;;;;;;;;;;;;;;;;;5047012;28;47224;-68
2023/06/23 16:03:28;;;;;;;;;;;;;;;;;;5043265;28;42769;-68
2023/06/23 16:05:56;;;;;;;;;;;;;;;;;;5043234;28;44422;-67
2023/06/23 16:08:22;;;;;;;;;;;;;;;;;;5045254;28;45865;-67
2023/06/23 16:10:49;;;;;;;;;;;;;;;;;;5045840;28;46518;-68
2023/06/23 16:13:15;;;;;;;;;;;;;;;;;;5045371;28;45862;-67
2023/06/23 16:15:41;;;;;;;;;;;;;;;;;;5047064;28;42925;-67
2023/06/23 16:18:08;;;;;;;;;;;;;;;;;;5046057;28;46487;-67
2023/06/23 16:20:36;;;;;;;;;;;;;;;;;;5044028;28;46897;-67
2023/06/23 16:23:02;;;;;;;;;;;;;;;;;;5045127;28;42579;-67
2023/06/23 16:25:29;;;;;;;;;;;;;;;;;;5044867;28;46425;-67
2023/06/23 16:27:57;;;;;;;;;;;;;;;;;;5045615;28;44716;-68
2023/06/23 16:30:23;;;;;;;;;;;;;;;;;;5045705;28;44565;-67
2023/06/23 16:32:49;;;;;;;;;;;;;;;;;;5046574;28;46930;-67
2023/06/23 16:35:16;;;;;;;;;;;;;;;;;;5045191;28;44060;-67
2023/06/23 16:37:42;;;;;;;;;;;;;;;;;;5045149;28;43272;-68
2023/06/23 16:40:08;;;;;;;;;;;;;;;;;;5045291;28;45628;-67